Time;durP1;ratioP1;P1;durP2;ratioP2;P2;SDS_P1;SDS_P2;PMS_P1;PMS_P2;Temp;Humidity;BMP_temperature;BMP_pressure;BME280_temperature;BME280_humidity;BME280_pressure;Samples;Min_cycle;Max_cycle;Signal;HPM_P1;HPM_P2
2022/10/18 00:00:54;;;;;;;17.02;7.03;;;16.20;99.90;;;15.37;100.00;97655.38;6206950;23;20028;-67
2022/10/18 00:03:22;;;;;;;14.18;6.43;;;16.20;99.90;;;15.37;100.00;97653.63;6205303;23;20492;-67
2022/10/18 00:05:49;;;;;;;21.02;7.65;;;16.20;99.90;;;15.28;100.00;97656.81;6207197;23;20024;-67
2022/10/18 00:08:17;;;;;;;27.77;8.23;;;16.20;99.90;;;15.15;100.00;97655.88;6204551;23;20651;-67
2022/10/18 00:10:45;;;;;;;23.38;8.88;;;16.10;99.90;;;15.03;100.00;97658.28;6206440;23;20017;-67
2022/10/18 00:13:12;;;;;;;15.90;8.57;;;16.00;99.90;;;14.92;100.00;97662.47;6204586;23;20101;-67
2022/10/18 00:15:47;;;;;;;16.13;7.75;;;15.90;99.90;;;14.91;100.00;97664.22;6206261;23;20020;-67
2022/10/18 00:18:14;;;;;;;20.23;8.05;;;15.90;99.90;;;14.94;100.00;97668.41;6206156;23;20032;-67
2022/10/18 00:20:41;;;;;;;21.20;9.05;;;15.90;99.90;;;14.93;100.00;97667.56;6206308;23;20036;-68
2022/10/18 00:23:07;;;;;;;22.08;7.97;;;15.90;99.90;;;15.02;100.00;97667.03;6213324;23;20342;-67
2022/10/18 00:25:34;;;;;;;12.75;5.72;;;15.90;99.90;;;15.19;100.00;97666.03;6205532;23;20029;-67
2022/10/18 00:28:01;;;;;;;15.27;7.03;;;15.90;99.90;;;15.35;100.00;97665.09;6205186;23;20341;-67
2022/10/18 00:30:28;;;;;;;13.18;6.32;;;15.90;99.90;;;15.36;100.00;97672.88;6204515;23;20024;-67
2022/10/18 00:32:55;;;;;;;20.50;6.70;;;16.00;99.90;;;15.47;100.00;97670.44;6206019;23;20020;-67
2022/10/18 00:35:22;;;;;;;14.85;6.15;;;16.00;99.90;;;15.47;100.00;97669.59;6206069;23;20025;-67
2022/10/18 00:37:49;;;;;;;12.43;5.55;;;16.00;99.90;;;15.52;100.00;97658.88;6206673;23;20025;-68
2022/10/18 00:40:16;;;;;;;9.90;6.75;;;16.10;99.90;;;15.39;100.00;97669.22;6204277;23;20031;-68
2022/10/18 00:42:43;;;;;;;24.23;8.95;;;16.10;99.90;;;15.14;100.00;97668.06;6205682;23;20535;-67
2022/10/18 00:45:21;;;;;;;14.32;6.40;;;16.10;99.90;;;15.09;100.00;97662.28;6205708;23;20023;-67
2022/10/18 00:48:01;;;;;;;15.98;6.68;;;16.00;99.90;;;15.18;100.00;97672.19;6206234;23;20713;-67
2022/10/18 00:50:33;;;;;;;15.45;6.75;;;15.90;99.90;;;15.03;100.00;97673.97;6204633;23;20027;-67
2022/10/18 00:53:04;;;;;;;14.45;6.80;;;15.80;99.90;;;15.17;100.00;97661.84;6203487;23;20051;-67
2022/10/18 00:55:33;;;;;;;11.30;5.40;;;15.80;99.90;;;15.30;100.00;97665.38;6204295;23;20033;-68
2022/10/18 00:58:00;;;;;;;14.13;5.75;;;15.80;99.90;;;15.34;100.00;97658.22;6204355;23;20028;-68
2022/10/18 01:00:27;;;;;;;11.32;4.93;;;15.80;99.90;;;15.39;100.00;97650.91;6205918;23;20116;-67
2022/10/18 01:02:56;;;;;;;14.07;5.55;;;15.80;99.90;;;15.49;100.00;97649.44;6206151;23;20030;-67
2022/10/18 01:05:23;;;;;;;23.95;5.63;;;15.90;99.90;;;15.43;100.00;97648.00;6204616;23;20036;-67
2022/10/18 01:08:08;;;;;;;13.80;5.45;;;15.80;99.90;;;15.38;100.00;97647.47;6204681;23;20024;-67
2022/10/18 01:11:17;;;;;;;19.85;7.05;;;15.90;99.90;;;15.23;100.00;97641.38;6207171;23;20028;-67
2022/10/18 01:14:23;;;;;;;13.23;6.35;;;15.90;99.90;;;15.12;100.00;97646.44;6205067;23;20456;-67
2022/10/18 01:17:06;;;;;;;9.48;4.85;;;15.90;99.90;;;15.35;100.00;97634.59;6205263;23;20020;-67
2022/10/18 01:20:10;;;;;;;19.55;7.75;;;15.90;99.90;;;15.41;100.00;97625.50;6205952;23;20017;-67
2022/10/18 01:22:52;;;;;;;13.50;4.47;;;16.00;99.90;;;15.48;100.00;97634.66;6205946;23;20364;-67
2022/10/18 01:25:54;;;;;;;9.40;4.78;;;16.00;99.90;;;15.54;100.00;97623.81;6204414;23;20044;-67
2022/10/18 01:29:02;;;;;;;10.02;4.47;;;16.00;99.90;;;15.53;100.00;97619.53;6204955;23;20029;-67
2022/10/18 01:32:04;;;;;;;10.32;4.82;;;16.00;99.90;;;15.50;100.00;97619.72;6214761;23;20356;-67
2022/10/18 01:34:35;;;;;;;14.88;6.68;;;16.00;99.90;;;15.19;100.00;97629.44;6204000;23;20069;-67
2022/10/18 01:37:07;;;;;;;17.85;7.70;;;16.00;99.90;;;15.03;100.00;97624.28;6205287;23;20025;-67
2022/10/18 01:39:37;;;;;;;15.10;6.25;;;16.00;99.90;;;15.05;100.00;97624.19;6203718;23;20013;-67
2022/10/18 01:42:09;;;;;;;13.63;6.32;;;15.80;99.90;;;15.05;100.00;97616.34;6204676;23;20104;-67
2022/10/18 01:44:40;;;;;;;17.65;6.60;;;15.80;99.90;;;14.94;100.00;97618.75;6203192;23;20024;-67
2022/10/18 01:47:10;;;;;;;15.20;7.13;;;15.80;99.90;;;14.90;100.00;97623.34;6201457;23;20024;-67
2022/10/18 01:49:37;;;;;;;15.13;7.57;;;15.80;99.90;;;14.91;100.00;97625.00;6202294;23;20021;-67
2022/10/18 01:52:04;;;;;;;17.38;7.18;;;15.70;99.90;;;14.97;100.00;97615.97;6205389;23;20024;-67
2022/10/18 01:54:38;;;;;;;16.58;6.35;;;15.70;99.90;;;14.91;100.00;97617.16;6204685;23;20091;-67
2022/10/18 01:57:11;;;;;;;15.25;6.88;;;15.70;99.90;;;14.84;100.00;97624.53;6203358;23;20020;-67
2022/10/18 01:59:43;;;;;;;;;;;15.70;99.90;;;14.94;100.00;97616.13;6207476;23;20044;-67
2022/10/18 02:02:52;;;;;;;16.67;7.10;;;15.70;99.90;;;15.01;100.00;97623.53;6214637;23;19915;-67
2022/10/18 02:05:56;;;;;;;17.33;7.15;;;15.70;99.90;;;14.99;100.00;97622.78;6204175;23;20024;-67
2022/10/18 02:08:34;;;;;;;13.63;6.35;;;15.80;99.90;;;15.05;100.00;97616.34;6173088;23;20368;-67
2022/10/18 02:11:08;;;;;;;15.43;6.82;;;15.80;99.90;;;15.07;100.00;97619.69;6205212;23;20035;-67
2022/10/18 02:13:47;;;;;;;13.77;5.95;;;15.90;99.90;;;15.12;100.00;97619.44;6205616;23;20021;-67
2022/10/18 02:16:24;;;;;;;16.15;5.88;;;15.90;99.90;;;15.03;100.00;97616.44;6204634;23;20020;-67
2022/10/18 02:19:06;;;;;;;15.50;6.95;;;15.90;99.90;;;14.97;100.00;97616.81;6206274;23;20120;-68
2022/10/18 02:21:34;;;;;;;14.13;7.15;;;15.90;99.90;;;15.03;100.00;97611.22;6205098;23;20030;-68
2022/10/18 02:24:03;;;;;;;9.95;6.10;;;15.90;99.90;;;15.04;100.00;97607.66;6206257;23;20039;-67
2022/10/18 02:26:30;;;;;;;12.43;5.40;;;15.90;99.90;;;15.25;100.00;97602.06;6204689;23;20364;-67
2022/10/18 02:28:57;;;;;;;11.90;5.03;;;15.80;99.90;;;15.23;100.00;97598.69;6204375;23;20043;-67
2022/10/18 02:31:45;;;;;;;10.95;4.07;;;15.90;99.90;;;15.78;100.00;97581.38;6203393;23;20116;-67
2022/10/18 02:34:40;;;;;;;12.07;3.33;;;16.00;99.90;;;16.17;100.00;97570.13;6204233;23;20021;-67
2022/10/18 02:37:09;;;;;;;6.47;3.05;;;16.30;99.90;;;16.25;100.00;97573.06;6205534;23;20077;-67
2022/10/18 02:39:42;;;;;;;9.77;3.40;;;16.50;99.90;;;16.22;100.00;97547.09;6203519;23;20346;-67
2022/10/18 02:42:11;;;;;;;5.63;2.95;;;16.60;99.90;;;16.37;100.00;97550.47;6204104;23;20029;-67
2022/10/18 02:44:38;;;;;;;9.35;3.05;;;16.60;99.90;;;16.46;100.00;97557.72;6203915;23;20104;-67
2022/10/18 02:47:10;;;;;;;7.93;3.67;;;16.70;99.90;;;16.38;100.00;97574.91;6204608;23;20181;-67
2022/10/18 02:49:37;;;;;;;12.02;4.13;;;16.70;99.90;;;16.33;100.00;97569.09;6207041;23;20032;-67
2022/10/18 02:52:04;;;;;;;9.82;3.53;;;16.70;99.90;;;16.37;100.00;97570.59;6205954;23;20480;-67
2022/10/18 02:54:31;;;;;;;8.32;3.15;;;16.70;99.90;;;16.23;100.00;97572.31;6204845;23;20321;-67
2022/10/18 02:56:58;;;;;;;8.95;3.20;;;16.70;99.90;;;16.24;100.00;97594.97;6206717;23;20470;-67
2022/10/18 02:59:24;;;;;;;14.80;3.22;;;16.70;99.90;;;16.22;100.00;97602.09;6205838;23;20024;-67
2022/10/18 03:01:51;;;;;;;9.18;3.33;;;16.80;99.90;;;16.16;100.00;97605.09;6205485;23;20575;-67
2022/10/18 03:04:18;;;;;;;6.13;3.28;;;16.80;99.90;;;16.14;100.00;97609.59;6206234;23;20028;-68
2022/10/18 03:06:45;;;;;;;9.18;3.28;;;16.80;99.90;;;16.21;100.00;97605.63;6206412;23;20017;-67
2022/10/18 03:09:12;;;;;;;7.13;3.53;;;16.80;99.90;;;16.24;100.00;97607.25;6206257;23;20027;-67
2022/10/18 03:11:39;;;;;;;9.02;3.42;;;16.80;99.90;;;16.24;100.00;97609.84;6206480;23;20024;-67
2022/10/18 03:14:06;;;;;;;7.85;3.42;;;16.80;99.90;;;16.16;100.00;97620.81;6207132;23;20361;-67
2022/10/18 03:16:33;;;;;;;8.57;4.10;;;16.70;99.90;;;16.02;100.00;97632.16;6206181;23;20048;-67
2022/10/18 03:19:00;;;;;;;11.40;4.70;;;16.60;99.90;;;15.97;100.00;97631.63;6206553;23;20054;-67
2022/10/18 03:21:27;;;;;;;19.17;6.10;;;16.50;99.90;;;15.87;100.00;97635.75;6204654;23;20024;-67
2022/10/18 03:23:54;;;;;;;11.10;5.13;;;16.40;99.90;;;15.80;100.00;97631.84;6206447;23;20571;-67
2022/10/18 03:26:21;;;;;;;16.33;5.25;;;16.30;99.90;;;15.78;100.00;97639.81;6205649;23;20021;-67
2022/10/18 03:28:48;;;;;;;13.38;5.25;;;16.30;99.90;;;15.79;100.00;97640.66;6205661;23;20027;-67
2022/10/18 03:31:16;;;;;;;10.00;4.97;;;16.30;99.90;;;15.80;100.00;97648.38;6205686;23;20027;-67
2022/10/18 03:33:43;;;;;;;12.80;5.50;;;16.30;99.90;;;15.73;100.00;97654.94;6205049;23;20027;-67
2022/10/18 03:36:11;;;;;;;10.77;5.85;;;16.30;99.90;;;15.74;100.00;97648.78;6205140;23;20143;-67
2022/10/18 03:38:37;;;;;;;14.50;6.40;;;16.30;99.90;;;15.72;100.00;97642.81;6206062;23;20105;-67
2022/10/18 03:41:05;;;;;;;14.45;6.43;;;16.30;99.90;;;15.77;100.00;97643.34;6205309;23;20024;-67
2022/10/18 03:43:32;;;;;;;9.20;4.72;;;16.30;99.90;;;15.85;100.00;97637.63;6206629;23;20037;-67
2022/10/18 03:45:59;;;;;;;12.80;5.80;;;16.30;99.90;;;15.66;100.00;97635.28;6206214;23;20027;-67
2022/10/18 03:48:27;;;;;;;9.77;5.15;;;16.30;99.90;;;15.68;100.00;97636.88;6204229;23;20149;-67
2022/10/18 03:50:53;;;;;;;11.05;4.68;;;16.20;99.90;;;15.64;100.00;97640.63;6205753;23;20027;-67
2022/10/18 03:53:20;;;;;;;12.10;5.63;;;16.30;99.90;;;15.62;100.00;97639.91;6204978;23;20025;-67
2022/10/18 03:55:52;;;;;;;8.52;4.22;;;16.20;99.90;;;15.62;100.00;97639.91;6205677;23;20492;-67
2022/10/18 03:58:19;;;;;;;12.63;5.05;;;16.10;99.90;;;15.59;100.00;97641.84;6207416;23;20024;-67
2022/10/18 04:00:54;;;;;;;11.27;6.43;;;16.10;99.90;;;15.51;100.00;97642.34;6208214;23;20025;-66
2022/10/18 04:03:22;;;;;;;10.68;4.53;;;16.10;99.90;;;15.44;100.00;97648.84;6205195;23;20103;-67
2022/10/18 04:05:49;;;;;;;11.68;4.80;;;16.10;99.90;;;15.48;100.00;97645.94;6204887;23;20427;-67
2022/10/18 04:08:17;;;;;;;18.20;5.53;;;16.10;99.90;;;15.57;100.00;97651.56;6207389;23;20051;-67
2022/10/18 04:10:45;;;;;;;8.23;4.60;;;16.10;99.90;;;15.53;100.00;97648.31;6207219;23;20040;-68
2022/10/18 04:13:12;;;;;;;20.17;6.25;;;16.10;99.90;;;15.33;100.00;97646.06;6207536;23;20031;-67
2022/10/18 04:15:39;;;;;;;14.05;6.40;;;16.00;99.90;;;15.35;100.00;97647.66;6207188;23;20024;-67
2022/10/18 04:18:06;;;;;;;9.82;4.53;;;16.00;99.90;;;15.44;100.00;97651.47;6207250;23;20031;-68
2022/10/18 04:20:33;;;;;;;7.18;4.30;;;16.00;99.90;;;15.49;100.00;97649.44;6206918;23;20024;-67
2022/10/18 04:22:59;;;;;;;9.13;4.25;;;16.00;99.90;;;15.55;100.00;97641.19;6207476;23;20021;-67
2022/10/18 04:25:28;;;;;;;16.10;5.10;;;15.90;99.90;;;15.47;100.00;97644.28;6206845;23;20124;-68
2022/10/18 04:27:55;;;;;;;9.13;4.00;;;15.90;99.90;;;15.45;100.00;97647.94;6207637;23;20036;-67
2022/10/18 04:30:22;;;;;;;14.80;5.95;;;15.90;99.90;;;15.30;100.00;97656.69;6204951;23;20054;-67
2022/10/18 04:32:48;;;;;;;7.57;4.38;;;15.90;99.90;;;15.37;100.00;97660.63;6206829;23;20035;-68
2022/10/18 04:35:15;;;;;;;10.07;5.13;;;15.90;99.90;;;15.27;100.00;97662.97;6206277;23;20031;-67
2022/10/18 04:37:42;;;;;;;8.65;4.07;;;15.90;99.90;;;15.33;100.00;97669.63;6206823;23;20048;-67
2022/10/18 04:40:10;;;;;;;9.18;4.45;;;15.90;99.90;;;15.30;100.00;97664.53;6206305;23;20025;-67
2022/10/18 04:42:37;;;;;;;10.05;5.15;;;15.80;99.90;;;15.29;100.00;97665.50;6207467;23;20024;-67
2022/10/18 04:45:04;;;;;;;10.88;5.25;;;15.80;99.90;;;15.10;100.00;97669.22;6206527;23;20030;-67
2022/10/18 04:47:31;;;;;;;10.82;5.60;;;15.80;99.90;;;15.17;100.00;97665.28;6205964;23;20091;-67
2022/10/18 04:49:58;;;;;;;10.27;4.93;;;15.70;99.90;;;15.15;100.00;97674.16;6230231;23;20090;-67
2022/10/18 04:52:25;;;;;;;13.02;6.07;;;15.70;99.90;;;15.15;100.00;97682.00;6207353;23;20499;-67
2022/10/18 04:54:52;;;;;;;11.43;4.53;;;15.70;99.90;;;15.10;100.00;97674.44;6206184;23;20020;-67
2022/10/18 04:57:19;;;;;;;11.52;5.60;;;15.70;99.90;;;15.15;100.00;97663.72;6206441;23;20702;-67
2022/10/18 04:59:46;;;;;;;13.52;5.57;;;15.60;99.90;;;15.15;100.00;97666.31;6207595;23;20048;-67
2022/10/18 05:02:13;;;;;;;17.58;5.35;;;15.60;99.90;;;14.90;100.00;97683.44;6206554;23;20032;-67
2022/10/18 05:04:40;;;;;;;12.90;7.55;;;15.60;99.90;;;14.67;100.00;97697.84;6205734;23;20032;-67
2022/10/18 05:07:07;;;;;;;10.13;6.13;;;15.50;99.90;;;14.78;100.00;97686.75;6207255;23;20020;-67
2022/10/18 05:09:34;;;;;;;11.82;6.00;;;15.50;99.90;;;14.98;100.00;97685.59;6205834;23;20028;-67
2022/10/18 05:12:00;;;;;;;9.55;5.38;;;15.60;99.90;;;15.03;100.00;97684.41;6205057;23;20024;-67
2022/10/18 05:14:27;;;;;;;14.30;4.97;;;15.60;99.90;;;15.04;100.00;97682.63;6206692;23;20096;-67
2022/10/18 05:16:54;;;;;;;10.35;4.70;;;15.60;99.90;;;15.03;100.00;97686.19;6206619;23;20035;-67
2022/10/18 05:19:21;;;;;;;13.07;5.82;;;15.60;99.90;;;15.04;100.00;97688.69;6206262;23;20035;-67
2022/10/18 05:21:48;;;;;;;10.63;6.53;;;15.60;99.90;;;15.04;100.00;97686.09;6205793;23;20066;-67
2022/10/18 05:24:15;;;;;;;12.13;6.90;;;15.60;99.90;;;15.05;100.00;97679.94;6203905;23;20395;-67
2022/10/18 05:26:42;;;;;;;13.43;5.43;;;15.60;99.90;;;15.10;100.00;97671.81;6206120;23;20373;-67
2022/10/18 05:29:09;;;;;;;8.48;4.90;;;15.70;99.90;;;15.10;100.00;97666.59;6207645;23;20020;-69
2022/10/18 05:31:36;;;;;;;11.50;5.55;;;15.70;99.90;;;14.99;100.00;97658.56;6206319;23;20042;-68
2022/10/18 05:34:03;;;;;;;11.15;6.03;;;15.70;99.90;;;14.72;100.00;97661.00;6206406;23;20043;-68
2022/10/18 05:36:30;;;;;;;15.93;7.78;;;15.60;99.90;;;14.63;100.00;97659.75;6206183;23;20024;-68
2022/10/18 05:38:57;;;;;;;14.05;6.65;;;15.60;99.90;;;14.57;100.00;97658.34;6206409;23;20020;-68
2022/10/18 05:41:30;;;;;;;12.95;7.25;;;15.50;99.90;;;14.57;100.00;97657.50;6205051;23;20023;-68
2022/10/18 05:43:57;;;;;;;11.35;6.47;;;15.40;99.90;;;14.56;100.00;97650.59;6205311;23;20025;-68
2022/10/18 05:46:27;;;;;;;12.60;6.10;;;15.30;99.90;;;14.58;100.00;97651.34;6204897;23;20021;-68
2022/10/18 05:48:53;;;;;;;13.70;7.32;;;15.20;99.90;;;14.51;100.00;97648.22;6206531;23;20685;-68
2022/10/18 05:51:20;;;;;;;18.42;9.77;;;15.20;99.90;;;14.34;100.00;97664.00;6206635;23;20017;-68
2022/10/18 05:53:47;;;;;;;20.02;9.15;;;15.10;99.90;;;14.32;100.00;97666.72;6206196;23;20032;-68
2022/10/18 05:56:14;;;;;;;15.55;8.13;;;15.20;99.90;;;14.31;100.00;97678.06;6206459;23;20024;-68
2022/10/18 05:58:42;;;;;;;15.13;8.75;;;15.10;99.90;;;14.32;100.00;97677.16;6216169;23;20460;-67
2022/10/18 06:01:09;;;;;;;18.25;8.75;;;15.20;99.90;;;14.28;100.00;97683.47;6206103;23;20028;-68
2022/10/18 06:03:36;;;;;;;21.58;10.25;;;15.20;99.90;;;14.34;100.00;97687.50;6205451;23;20043;-67
2022/10/18 06:06:08;;;;;;;17.38;7.60;;;15.20;99.90;;;14.48;100.00;97694.56;6205309;23;20024;-67
2022/10/18 06:08:36;;;;;;;14.07;7.07;;;15.10;99.90;;;14.48;100.00;97674.50;6207009;23;20028;-67
2022/10/18 06:11:16;;;;;;;12.68;6.22;;;15.10;99.90;;;14.53;100.00;97666.38;6206931;23;20024;-67
2022/10/18 06:13:46;;;;;;;16.88;7.68;;;15.10;99.90;;;14.52;100.00;97673.41;6203644;23;20099;-68
2022/10/18 06:16:15;;;;;;;15.88;8.65;;;15.10;99.90;;;14.54;100.00;97683.75;6204230;23;20020;-67
2022/10/18 06:18:42;;;;;;;14.82;7.20;;;15.20;99.90;;;14.55;100.00;97686.34;6205410;23;20024;-68
2022/10/18 06:21:09;;;;;;;13.60;7.57;;;15.20;99.90;;;14.68;100.00;97694.28;6204743;23;20429;-67
2022/10/18 06:23:36;;;;;;;16.67;8.43;;;15.20;99.90;;;14.67;100.00;97703.06;6207220;23;20021;-68
2022/10/18 06:26:06;;;;;;;20.58;13.27;;;15.20;99.90;;;14.61;100.00;97703.41;6206655;23;20028;-68
2022/10/18 06:28:35;;;;;;;13.50;8.38;;;15.20;99.90;;;14.59;100.00;97713.94;6205868;23;20472;-67
2022/10/18 06:31:03;;;;;;;16.05;7.88;;;15.30;99.90;;;14.54;100.00;97720.34;6205289;23;20069;-67
2022/10/18 06:33:32;;;;;;;13.88;7.95;;;15.40;99.90;;;14.58;100.00;97717.50;6202970;23;20050;-67
2022/10/18 06:36:12;;;;;;;15.55;7.30;;;15.40;99.90;;;14.73;100.00;97718.38;6205800;23;20027;-67
2022/10/18 06:38:39;;;;;;;10.27;5.72;;;15.40;99.90;;;14.81;100.00;97720.56;6206693;23;20028;-68
2022/10/18 06:41:07;;;;;;;15.13;6.25;;;15.50;99.90;;;14.83;100.00;97718.72;6201340;23;20024;-67
2022/10/18 06:43:35;;;;;;;13.25;5.90;;;15.50;99.90;;;14.84;100.00;97725.59;6205183;23;20050;-67
2022/10/18 06:46:05;;;;;;;8.80;5.22;;;15.60;99.90;;;15.09;100.00;97725.03;6216081;23;20123;-67
2022/10/18 06:48:34;;;;;;;9.60;5.65;;;15.70;99.90;;;15.03;100.00;97735.88;6218008;23;20048;-67
2022/10/18 06:51:04;;;;;;;12.52;5.53;;;15.70;99.90;;;15.00;100.00;97738.63;6218687;23;20063;-68
2022/10/18 06:53:34;;;;;;;14.02;5.60;;;15.70;99.90;;;14.99;100.00;97731.75;6221721;23;20104;-67
2022/10/18 06:56:14;;;;;;;;;;;15.80;99.90;;;14.96;100.00;97734.50;6198415;22;20100;-67
2022/10/18 06:58:41;;;;;;;9.98;6.07;;;15.80;99.90;;;14.92;100.00;97728.63;6196406;22;19923;-67
2022/10/18 07:01:11;;;;;;;20.55;6.20;;;15.80;99.90;;;14.94;100.00;97728.53;6204108;23;20028;-67
2022/10/18 07:03:38;;;;;;;12.15;5.70;;;15.80;99.90;;;14.87;100.00;97733.28;6204402;23;20016;-68
2022/10/18 07:06:09;;;;;;;12.18;6.85;;;15.80;99.90;;;14.94;100.00;97726.78;6204170;23;20162;-67
2022/10/18 07:08:36;;;;;;;14.48;6.15;;;15.80;99.90;;;15.03;100.00;97721.00;6206395;23;20021;-67
2022/10/18 07:11:05;;;;;;;9.45;6.13;;;15.80;99.90;;;14.99;100.00;97729.97;6201685;23;20176;-67
2022/10/18 07:13:33;;;;;;;11.95;6.57;;;15.80;99.90;;;14.84;100.00;97734.28;6204929;23;20352;-67
2022/10/18 07:16:07;;;;;;;13.07;6.85;;;16.00;99.90;;;15.08;100.00;97740.81;6204393;23;20099;-67
2022/10/18 07:18:49;;;;;;;11.43;6.47;;;16.00;99.90;;;15.06;100.00;97744.34;6202717;23;20086;-67
2022/10/18 07:21:20;;;;;;;15.57;6.95;;;16.00;99.90;;;15.03;100.00;97751.56;6204304;23;20031;-67
2022/10/18 07:23:48;;;;;;;21.40;7.05;;;16.00;99.90;;;15.06;100.00;97751.34;6204131;23;20028;-67
2022/10/18 07:26:24;;;;;;;19.83;7.05;;;16.00;99.90;;;15.13;100.00;97750.06;6201078;23;20024;-67
2022/10/18 07:29:08;;;;;;;9.43;5.65;;;16.10;99.90;;;15.26;100.00;97742.34;6203802;23;20032;-67
2022/10/18 07:31:39;;;;;;;15.07;6.43;;;16.10;99.90;;;15.24;100.00;97744.22;6203166;23;20036;-67
2022/10/18 07:34:09;;;;;;;13.02;7.15;;;16.10;99.90;;;15.18;100.00;97745.41;6205750;23;20051;-67
2022/10/18 07:36:36;;;;;;;11.52;7.03;;;16.20;99.90;;;15.33;100.00;97748.91;6204983;23;20024;-68
2022/10/18 07:39:04;;;;;;;12.10;7.97;;;16.20;99.90;;;15.42;100.00;97747.53;6207347;23;20032;-67
2022/10/18 07:41:32;;;;;;;10.60;6.82;;;16.30;99.90;;;15.52;100.00;97758.28;6204264;23;20047;-67
2022/10/18 07:44:01;;;;;;;14.43;7.40;;;16.40;99.90;;;15.71;100.00;97758.88;6205179;23;20025;-67
2022/10/18 07:46:28;;;;;;;12.27;7.15;;;16.50;99.90;;;16.07;100.00;97753.16;6206255;23;20028;-67
2022/10/18 07:48:57;;;;;;;14.65;9.27;;;16.70;99.90;;;15.92;100.00;97759.34;6205266;23;20041;-67
2022/10/18 07:51:25;;;;;;;11.45;7.70;;;16.90;99.90;;;16.29;100.00;97752.66;6205186;23;20694;-67
2022/10/18 07:53:51;;;;;;;13.10;8.32;;;17.30;99.90;;;16.58;100.00;97744.75;6205560;23;20746;-67
2022/10/18 07:56:20;;;;;;;14.23;8.50;;;17.50;99.90;;;16.22;100.00;97750.53;6206451;23;20029;-67
2022/10/18 07:58:51;;;;;;;15.60;8.32;;;17.50;99.90;;;16.46;100.00;97742.88;6207152;23;20028;-68
2022/10/18 08:01:21;;;;;;;13.05;8.63;;;17.50;99.90;;;16.45;100.00;97757.78;6204922;23;20029;-68
2022/10/18 08:03:49;;;;;;;15.00;9.23;;;17.40;99.90;;;16.40;100.00;97759.84;6206563;23;20059;-67
2022/10/18 08:06:18;;;;;;;15.18;10.13;;;17.40;99.90;;;16.27;100.00;97761.56;6205377;23;20024;-67
2022/10/18 08:08:46;;;;;;;14.27;9.90;;;17.30;99.90;;;16.27;100.00;97758.94;6205096;23;20472;-67
2022/10/18 08:11:19;;;;;;;16.88;9.93;;;17.30;99.90;;;16.12;100.00;97773.81;6204835;23;20031;-67
2022/10/18 08:13:47;;;;;;;13.73;10.25;;;17.30;99.90;;;16.39;100.00;97768.63;6207132;23;20016;-67
2022/10/18 08:16:20;;;;;;;16.42;10.63;;;17.30;99.90;;;16.42;100.00;97772.84;6206262;23;20025;-68
2022/10/18 08:18:47;;;;;;;14.48;9.75;;;17.10;99.90;;;16.20;100.00;97779.44;6204808;23;20055;-67
2022/10/18 08:21:17;;;;;;;26.13;13.10;;;17.10;99.90;;;16.19;100.00;97782.13;6204005;23;20468;-67
2022/10/18 08:23:44;;;;;;;13.05;10.73;;;17.10;99.90;;;16.30;100.00;97777.06;6206994;23;20043;-67
2022/10/18 08:26:15;;;;;;;17.27;11.85;;;17.20;99.90;;;16.20;100.00;97794.31;6205490;23;20051;-67
2022/10/18 08:28:43;;;;;;;18.50;11.82;;;17.20;99.90;;;16.30;100.00;97796.25;6204943;23;20123;-66
2022/10/18 08:31:29;;;;;;;15.45;11.25;;;17.20;99.90;;;16.48;100.00;97793.41;6224271;23;20429;-67
2022/10/18 08:33:56;;;;;;;17.30;11.13;;;17.20;99.90;;;16.61;100.00;97785.63;6205258;23;20056;-67
2022/10/18 08:36:24;;;;;;;15.40;10.40;;;17.30;99.90;;;16.66;100.00;97799.28;6206322;23;20038;-67
2022/10/18 08:38:51;;;;;;;18.85;12.77;;;17.40;99.90;;;16.32;100.00;97798.78;6206770;23;20038;-67
2022/10/18 08:41:39;;;;;;;19.45;11.52;;;;;;;16.34;100.00;97806.56;6205886;23;20619;-67
2022/10/18 08:44:30;;;;;;;15.98;11.68;;;17.60;99.90;;;16.46;100.00;97795.28;6204821;23;20024;-68
2022/10/18 08:47:14;;;;;;;16.02;11.15;;;17.70;99.90;;;16.67;100.00;97796.56;6203776;23;20031;-66
2022/10/18 08:49:56;;;;;;;18.85;10.65;;;17.90;99.90;;;16.97;100.00;97790.31;6204538;23;20348;-68
2022/10/18 08:52:38;;;;;;;18.23;10.38;;;18.20;99.90;;;17.39;100.00;97780.53;6207095;23;20039;-68
2022/10/18 08:55:15;;;;;;;11.85;8.25;;;18.40;99.90;;;17.44;100.00;97782.84;6215066;23;20103;-67
2022/10/18 08:57:42;;;;;;;11.63;7.90;;;18.60;99.90;;;17.43;100.00;97781.19;6204177;23;20021;-68
2022/10/18 09:00:24;;;;;;;12.73;7.75;;;18.50;99.90;;;16.97;100.00;97792.94;6205948;23;20096;-67
2022/10/18 09:03:38;;;;;;;13.15;8.15;;;18.40;99.90;;;17.07;100.00;97801.03;6202834;23;20021;-67
2022/10/18 09:06:29;;;;;;;10.65;5.57;;;18.30;99.90;;;17.24;100.00;97792.03;6203679;23;20083;-67
2022/10/18 09:09:34;;;;;;;5.97;3.22;;;18.30;99.90;;;16.84;100.00;97798.13;6200932;23;20024;-68
2022/10/18 09:12:29;;;;;;;5.75;3.63;;;18.20;99.90;;;16.85;100.00;97802.41;6204136;23;20031;-67
2022/10/18 09:15:06;;;;;;;7.35;3.05;;;17.90;99.90;;;16.97;100.00;97803.44;6204502;23;20119;-67
2022/10/18 09:18:04;;;;;;;7.15;2.25;;;17.80;99.90;;;16.65;100.00;97810.69;6204711;23;20021;-68
2022/10/18 09:21:12;;;;;;;4.10;2.00;;;17.80;99.90;;;16.76;100.00;97823.13;6180745;23;20024;-68
2022/10/18 09:23:59;;;;;;;3.50;1.55;;;17.80;99.90;;;16.50;100.00;97823.81;6193709;23;20032;-67
2022/10/18 09:26:26;;;;;;;3.35;2.05;;;17.80;99.90;;;16.49;100.00;97835.25;6204830;23;20413;-67
2022/10/18 09:29:23;;;;;;;3.20;1.58;;;17.80;99.90;;;16.66;100.00;97836.81;6204335;23;20052;-67
2022/10/18 09:32:07;;;;;;;3.25;1.73;;;17.90;99.90;;;16.77;100.00;97837.91;6203586;23;20021;-68
2022/10/18 09:34:45;;;;;;;3.28;1.45;;;18.20;99.90;;;17.10;100.00;97830.50;6204324;23;20028;-67
2022/10/18 09:37:16;;;;;;;3.42;1.30;;;18.30;99.90;;;17.29;100.00;97818.84;6202986;23;20387;-67
2022/10/18 09:39:44;;;;;;;3.60;1.30;;;18.60;99.90;;;17.07;100.00;97832.50;6203507;23;20032;-67
2022/10/18 09:42:28;;;;;;;2.22;1.52;;;18.60;99.90;;;17.17;100.00;97843.25;6200897;23;20028;-67
2022/10/18 09:45:25;;;;;;;5.00;1.50;;;18.70;99.90;;;17.52;100.00;97839.13;6200650;23;20389;-66
2022/10/18 09:48:19;;;;;;;3.35;1.42;;;18.80;99.90;;;17.76;100.00;97847.13;6197033;23;20063;-66
2022/10/18 09:51:20;;;;;;;4.13;1.50;;;18.80;99.90;;;17.13;100.00;97869.69;6204970;23;20021;-65
2022/10/18 09:54:23;;;;;;;3.67;2.08;;;18.80;99.90;;;17.01;100.00;97869.63;6201533;23;20021;-64
2022/10/18 09:57:01;;;;;;;8.77;1.90;;;18.70;99.90;;;17.15;100.00;97872.19;6204276;23;20334;-68
2022/10/18 09:59:48;;;;;;;5.07;2.55;;;18.50;99.90;;;17.00;100.00;97874.03;6199932;23;20519;-67
2022/10/18 10:02:20;;;;;;;4.38;3.13;;;18.30;99.90;;;17.04;100.00;97858.94;6201128;23;20036;-67
2022/10/18 10:04:49;;;;;;;6.73;3.43;;;18.20;99.90;;;16.95;100.00;97875.28;6201860;23;20048;-67
2022/10/18 10:07:25;;;;;;;6.00;3.38;;;18.20;99.90;;;17.06;100.00;97888.50;6202317;23;20069;-68
2022/10/18 10:10:20;;;;;;;5.88;2.60;;;18.20;99.90;;;17.16;100.00;97886.16;6201941;23;20023;-67
2022/10/18 10:12:48;;;;;;;6.30;3.00;;;18.20;99.90;;;17.01;100.00;97901.06;6202797;23;20027;-67
2022/10/18 10:15:25;;;;;;;6.78;2.97;;;18.30;99.90;;;17.30;100.00;97886.09;6201334;23;20024;-67
2022/10/18 10:18:24;;;;;;;4.53;2.30;;;18.40;99.90;;;17.12;100.00;97888.97;6202474;23;20027;-67
2022/10/18 10:21:00;;;;;;;3.10;2.43;;;18.60;99.90;;;17.58;100.00;97886.91;6204288;23;20404;-68
2022/10/18 10:23:53;;;;;;;4.22;2.10;;;18.70;99.90;;;17.46;100.00;97888.56;6204510;23;20039;-67
2022/10/18 10:26:32;;;;;;;4.32;2.33;;;19.00;99.90;;;17.53;100.00;97898.53;6202238;23;20028;-67
2022/10/18 10:28:59;;;;;;;2.92;1.63;;;19.00;99.90;;;17.80;100.00;97900.28;6202320;23;20078;-67
2022/10/18 10:31:31;;;;;;;3.92;1.60;;;19.00;99.90;;;17.71;100.00;97914.03;6204434;23;20078;-67